createdAt,value
2022-12-01T00:00:31.812Z,6.28
2022-12-01T00:01:32.549Z,6.28
2022-12-01T00:02:31.952Z,6.31
2022-12-01T00:03:31.796Z,6.27
2022-12-01T00:04:31.784Z,6.19
2022-12-01T00:05:31.784Z,6.31
2022-12-01T00:06:31.773Z,6.17
2022-12-01T00:07:31.809Z,6.17
2022-12-01T00:08:31.751Z,6.28
2022-12-01T00:09:31.739Z,6.24
2022-12-01T00:10:31.750Z,6.24
2022-12-01T00:11:31.727Z,6.27
2022-12-01T00:12:31.720Z,6.20
2022-12-01T00:13:31.706Z,6.26
2022-12-01T00:14:32.475Z,6.28
2022-12-01T00:15:31.699Z,6.14
2022-12-01T00:16:31.749Z,6.16
2022-12-01T00:17:31.696Z,6.11
2022-12-01T00:18:31.697Z,6.20
2022-12-01T00:19:31.667Z,6.14
2022-12-01T00:20:31.655Z,6.17
2022-12-01T00:21:31.662Z,6.14
2022-12-01T00:22:31.645Z,6.08
2022-12-01T00:23:31.640Z,6.22
2022-12-01T00:24:31.627Z,6.24
2022-12-01T00:25:31.616Z,6.08
2022-12-01T00:26:31.642Z,6.16
2022-12-01T00:28:24.310Z,6.12
2022-12-01T00:29:24.305Z,6.14
2022-12-01T00:30:24.304Z,6.16
2022-12-01T00:31:24.353Z,6.09
2022-12-01T00:32:24.285Z,6.01
2022-12-01T00:33:25.369Z,6.09
2022-12-01T00:34:25.360Z,6.05
2022-12-01T00:35:25.365Z,6.11
2022-12-01T00:36:25.353Z,6.07
2022-12-01T00:37:26.180Z,6.05
2022-12-01T00:38:25.334Z,6.09
2022-12-01T00:39:25.319Z,6.02
2022-12-01T00:40:25.347Z,6.04
2022-12-01T00:41:25.305Z,6.09
2022-12-01T00:42:25.296Z,6.14
2022-12-01T00:43:25.285Z,6.11
2022-12-01T00:44:26.267Z,6.16
2022-12-01T00:45:25.279Z,6.05
2022-12-01T00:46:25.315Z,6.11
2022-12-01T00:47:25.262Z,6.05
2022-12-01T00:48:26.190Z,6.07
2022-12-01T00:49:25.236Z,6.08
2022-12-01T00:50:25.244Z,6.07
2022-12-01T00:51:25.239Z,6.02
2022-12-01T00:52:25.227Z,6.09
2022-12-01T00:53:25.208Z,6.01
2022-12-01T00:54:25.210Z,6.09
2022-12-01T00:55:26.199Z,5.99
2022-12-01T00:56:25.185Z,6.01
2022-12-01T00:57:25.184Z,6.01
2022-12-01T00:58:25.178Z,5.99
2022-12-01T00:59:25.165Z,5.91
2022-12-01T01:00:25.160Z,6.08
2022-12-01T01:01:25.248Z,6.01
2022-12-01T01:02:26.198Z,6.17
2022-12-01T01:03:25.135Z,6.01
2022-12-01T01:04:25.122Z,5.98
2022-12-01T01:05:25.113Z,6.04
2022-12-01T01:06:25.101Z,6.08
2022-12-01T01:07:25.145Z,6.05
2022-12-01T01:08:25.091Z,6.07
2022-12-01T01:09:25.088Z,6.04
2022-12-01T01:10:25.080Z,6.05
2022-12-01T01:11:25.077Z,5.98
2022-12-01T01:12:25.062Z,6.01
2022-12-01T01:13:25.054Z,6.07
2022-12-01T01:14:25.047Z,5.93
2022-12-01T01:15:25.042Z,5.83
2022-12-01T01:16:25.090Z,5.89
2022-12-01T01:17:25.029Z,5.84
2022-12-01T01:18:25.010Z,5.83
2022-12-01T01:19:25.772Z,5.83
2022-12-01T01:20:26.773Z,5.76
2022-12-01T01:21:24.999Z,5.82
2022-12-01T01:22:24.982Z,5.90
2022-12-01T01:23:24.978Z,5.97
2022-12-01T01:24:24.985Z,5.86
2022-12-01T01:25:24.960Z,5.87
2022-12-01T01:26:24.972Z,5.89
2022-12-01T01:27:24.940Z,5.99
2022-12-01T01:28:24.942Z,5.93
2022-12-01T01:29:24.930Z,5.91
2022-12-01T01:30:24.980Z,5.89
2022-12-01T01:31:24.914Z,5.87
2022-12-01T01:32:24.900Z,5.86
2022-12-01T01:33:24.897Z,5.83
2022-12-01T01:34:24.892Z,5.97
2022-12-01T01:35:24.878Z,5.87
2022-12-01T01:36:24.872Z,5.91
2022-12-01T01:37:24.880Z,5.82
2022-12-01T01:38:24.852Z,5.84
2022-12-01T01:39:24.849Z,5.86
2022-12-01T01:40:24.835Z,5.84
2022-12-01T01:41:24.842Z,5.82
2022-12-01T01:42:24.885Z,5.73
2022-12-01T01:43:24.811Z,5.84
2022-12-01T01:44:24.804Z,5.80
2022-12-01T01:45:24.801Z,5.84
2022-12-01T01:46:24.840Z,5.79
2022-12-01T01:47:24.808Z,5.79
2022-12-01T01:48:24.771Z,5.71
2022-12-01T01:49:24.775Z,5.79
2022-12-01T01:50:25.775Z,5.72
2022-12-01T01:51:57.743Z,5.76
2022-12-01T01:52:24.747Z,5.72
2022-12-01T01:53:24.735Z,5.76
2022-12-01T01:54:24.729Z,5.79
2022-12-01T01:55:24.739Z,5.62
2022-12-01T01:56:24.716Z,5.72
2022-12-01T01:57:24.707Z,5.65
2022-12-01T01:58:24.705Z,5.71
2022-12-01T01:59:24.680Z,5.65
2022-12-01T02:00:24.686Z,5.66
2022-12-01T02:01:24.717Z,5.62
2022-12-01T02:02:24.672Z,5.72
2022-12-01T02:03:24.653Z,5.61
2022-12-01T02:04:24.652Z,5.72
2022-12-01T02:05:24.639Z,5.71
2022-12-01T02:06:25.228Z,5.72
2022-12-01T02:07:24.652Z,5.62
2022-12-01T02:08:24.624Z,5.72
2022-12-01T02:09:24.604Z,5.62
2022-12-01T02:10:24.603Z,5.61
2022-12-01T02:11:24.588Z,5.64
2022-12-01T02:12:24.582Z,5.75
2022-12-01T02:13:25.226Z,5.59
2022-12-01T02:14:24.578Z,5.57
2022-12-01T02:15:24.566Z,5.57
2022-12-01T02:16:26.329Z,5.61
2022-12-01T02:17:24.539Z,5.61
2022-12-01T02:18:24.548Z,5.57
2022-12-01T02:19:24.529Z,5.64
2022-12-01T02:20:24.519Z,5.50
2022-12-01T02:21:24.510Z,5.64
2022-12-01T02:22:24.502Z,5.56
2022-12-01T02:23:24.498Z,5.50
2022-12-01T02:24:24.491Z,5.48
2022-12-01T02:25:24.481Z,5.41
2022-12-01T02:26:24.469Z,5.53
2022-12-01T02:27:24.452Z,5.48
2022-12-01T02:28:24.455Z,5.41
2022-12-01T02:29:24.441Z,5.46
2022-12-01T02:30:24.537Z,5.44
2022-12-01T02:31:24.490Z,5.47
2022-12-01T02:32:24.417Z,5.44
2022-12-01T02:33:24.418Z,5.36
2022-12-01T02:34:25.225Z,5.38
2022-12-01T02:35:25.292Z,5.36
2022-12-01T02:36:25.380Z,5.35
2022-12-01T02:37:26.312Z,5.39
2022-12-01T02:38:24.387Z,5.46
2022-12-01T02:39:25.453Z,5.46
2022-12-01T02:40:26.300Z,5.36
2022-12-01T02:41:24.340Z,5.35
2022-12-01T02:42:24.332Z,5.38
2022-12-01T02:43:25.227Z,5.28
2022-12-01T02:44:24.332Z,5.35
2022-12-01T02:45:25.306Z,5.41
2022-12-01T02:46:24.409Z,5.32
2022-12-01T02:47:24.299Z,5.28
2022-12-01T02:48:24.287Z,5.23
2022-12-01T02:49:24.288Z,5.32
2022-12-01T02:50:24.271Z,5.36
2022-12-01T02:51:24.275Z,5.23
2022-12-01T02:52:24.258Z,5.23
2022-12-01T02:53:24.255Z,5.28
2022-12-01T02:54:24.808Z,5.26
2022-12-01T02:55:25.230Z,5.25
2022-12-01T02:56:24.235Z,5.28
2022-12-01T02:57:24.223Z,5.21
2022-12-01T02:58:24.212Z,5.25
2022-12-01T02:59:24.206Z,5.29
2022-12-01T03:00:24.187Z,5.26
2022-12-01T03:01:24.271Z,5.25
2022-12-01T03:02:24.259Z,5.32
2022-12-01T03:03:24.156Z,5.29
2022-12-01T03:04:25.157Z,5.21
2022-12-01T03:05:24.159Z,5.32
2022-12-01T03:06:24.731Z,5.36
2022-12-01T03:07:24.224Z,5.26
2022-12-01T03:08:25.735Z,5.17
2022-12-01T03:09:24.804Z,5.10
2022-12-01T03:10:24.119Z,5.28
2022-12-01T03:11:24.095Z,5.25
2022-12-01T03:12:24.091Z,5.25
2022-12-01T03:13:24.084Z,5.15
2022-12-01T03:14:24.090Z,5.15
2022-12-01T03:15:24.074Z,5.21
2022-12-01T03:16:24.137Z,5.33
2022-12-01T03:17:24.052Z,5.14
2022-12-01T03:18:24.050Z,5.29
2022-12-01T03:19:24.034Z,5.18
2022-12-01T03:20:24.040Z,5.23
2022-12-01T03:21:24.024Z,5.32
2022-12-01T03:22:24.024Z,5.25
2022-12-01T03:23:24.004Z,5.26
2022-12-01T03:24:24.003Z,5.28
2022-12-01T03:25:23.990Z,5.30
2022-12-01T03:26:23.984Z,5.28
2022-12-01T03:27:23.985Z,5.41
2022-12-01T03:28:23.975Z,5.30
2022-12-01T03:29:23.959Z,5.21
2022-12-01T03:30:23.935Z,5.28
2022-12-01T03:31:24.996Z,5.25
2022-12-01T03:32:23.925Z,5.15
2022-12-01T03:33:23.933Z,5.18
2022-12-01T03:34:23.916Z,5.17
2022-12-01T03:35:23.903Z,5.15
2022-12-01T03:36:23.899Z,5.28
2022-12-01T03:37:24.823Z,5.25
2022-12-01T03:38:23.878Z,5.18
2022-12-01T03:39:23.869Z,5.26
2022-12-01T03:40:23.863Z,5.33
2022-12-01T03:41:26.736Z,5.14
2022-12-01T03:42:23.846Z,5.26
2022-12-01T03:43:23.846Z,5.20
2022-12-01T03:44:23.833Z,5.14
2022-12-01T03:45:23.821Z,5.28
2022-12-01T03:46:23.895Z,5.20
2022-12-01T03:47:23.808Z,5.17
2022-12-01T03:48:23.793Z,5.18
2022-12-01T03:49:23.783Z,5.14
2022-12-01T03:50:23.779Z,5.21
2022-12-01T03:51:23.783Z,5.21
2022-12-01T03:52:23.768Z,5.21
2022-12-01T03:53:23.751Z,5.12
2022-12-01T03:54:23.744Z,5.14
2022-12-01T03:55:23.744Z,5.21
2022-12-01T03:56:23.739Z,5.33
2022-12-01T03:57:23.735Z,5.35
2022-12-01T03:58:23.712Z,5.29
2022-12-01T03:59:23.711Z,5.23
2022-12-01T04:00:24.326Z,5.28
2022-12-01T04:01:24.315Z,5.21
2022-12-01T04:02:23.753Z,5.35
2022-12-01T04:03:23.680Z,5.29
2022-12-01T04:04:23.666Z,5.26
2022-12-01T04:05:25.617Z,5.28
2022-12-01T04:06:24.655Z,5.23
2022-12-01T04:07:24.295Z,5.25
2022-12-01T04:08:23.649Z,5.23
2022-12-01T04:09:23.624Z,5.33
2022-12-01T04:10:23.618Z,5.32
2022-12-01T04:11:27.084Z,5.23
2022-12-01T04:12:24.611Z,5.35
2022-12-01T04:13:24.246Z,5.26
2022-12-01T04:14:23.597Z,5.33
2022-12-01T04:15:23.577Z,5.26
2022-12-01T04:16:23.629Z,5.38
2022-12-01T04:17:23.571Z,5.25
2022-12-01T04:18:23.560Z,5.33
2022-12-01T04:19:23.552Z,5.38
2022-12-01T04:20:23.547Z,5.35
2022-12-01T04:21:23.534Z,5.32
2022-12-01T04:22:23.543Z,5.43
2022-12-01T04:23:23.518Z,5.36
2022-12-01T04:24:23.509Z,5.28
2022-12-01T04:25:23.514Z,5.25
2022-12-01T04:26:23.489Z,5.20
2022-12-01T04:27:23.496Z,5.30
2022-12-01T04:28:26.331Z,5.25
2022-12-01T04:29:25.338Z,5.30
2022-12-01T04:30:23.463Z,5.32
2022-12-01T04:31:23.532Z,5.38
2022-12-01T04:32:23.444Z,5.28
2022-12-01T04:33:23.438Z,5.29
2022-12-01T04:34:23.449Z,5.18
2022-12-01T04:35:23.422Z,5.32
2022-12-01T04:36:23.416Z,5.26
2022-12-01T04:37:23.405Z,5.20
2022-12-01T04:38:30.037Z,5.15
2022-12-01T04:39:24.401Z,5.18
2022-12-01T04:40:23.383Z,5.20
2022-12-01T04:41:24.248Z,5.14
2022-12-01T04:42:25.246Z,5.20
2022-12-01T04:43:23.353Z,5.17
2022-12-01T04:44:23.351Z,5.11
2022-12-01T04:45:23.359Z,5.14
2022-12-01T04:46:23.358Z,5.12
2022-12-01T04:47:23.323Z,5.11
2022-12-01T04:48:23.314Z,5.08
2022-12-01T04:49:23.310Z,5.17
2022-12-01T04:50:23.301Z,5.15
2022-12-01T04:51:23.276Z,5.14
2022-12-01T04:52:24.283Z,5.17
2022-12-01T04:53:23.284Z,5.11
2022-12-01T04:54:23.871Z,5.12
2022-12-01T04:56:30.124Z,5.08
2022-12-01T04:57:30.125Z,5.08
2022-12-01T04:58:30.112Z,5.05
2022-12-01T04:59:30.108Z,5.02
2022-12-01T05:00:30.169Z,4.93
2022-12-01T05:01:30.099Z,5.00
2022-12-01T05:02:30.171Z,4.96
2022-12-01T05:03:30.074Z,4.89
2022-12-01T05:04:30.062Z,4.89
2022-12-01T05:05:30.073Z,4.80
2022-12-01T05:06:30.049Z,4.78
2022-12-01T05:07:30.086Z,4.80
2022-12-01T05:08:31.127Z,4.84
2022-12-01T05:09:31.137Z,4.82
2022-12-01T05:10:31.118Z,4.77
2022-12-01T05:11:31.109Z,4.86
2022-12-01T05:12:31.099Z,4.89
2022-12-01T05:13:31.094Z,4.86
2022-12-01T05:14:31.088Z,4.89
2022-12-01T05:15:31.083Z,4.80
2022-12-01T05:16:31.142Z,4.93
2022-12-01T05:17:36.683Z,4.82
2022-12-01T05:18:33.164Z,4.86
2022-12-01T05:19:31.043Z,4.80
2022-12-01T05:20:31.035Z,4.75
2022-12-01T05:21:31.037Z,4.78
2022-12-01T05:23:03.344Z,4.75
2022-12-01T05:23:33.050Z,4.77
2022-12-01T05:24:31.005Z,4.75
2022-12-01T05:25:31.007Z,4.73
2022-12-01T05:26:30.992Z,4.86
2022-12-01T05:27:31.014Z,4.73
2022-12-01T05:28:30.987Z,4.77
2022-12-01T05:29:30.973Z,4.75
2022-12-01T05:30:30.970Z,4.70
2022-12-01T05:31:31.009Z,4.66
2022-12-01T05:32:30.966Z,4.84
2022-12-01T05:33:30.940Z,4.73
2022-12-01T05:34:30.932Z,4.66
2022-12-01T05:35:31.116Z,4.58
2022-12-01T05:36:31.584Z,4.63
2022-12-01T05:37:30.909Z,4.70
2022-12-01T05:38:30.905Z,4.67
2022-12-01T05:39:30.928Z,4.66
2022-12-01T05:40:30.883Z,4.62
2022-12-01T05:41:30.881Z,4.66
2022-12-01T05:42:30.877Z,4.60
2022-12-01T05:43:30.893Z,4.66
2022-12-01T05:44:31.889Z,4.58
2022-12-01T05:45:30.906Z,4.55
2022-12-01T05:46:32.602Z,4.55
2022-12-01T05:47:30.837Z,4.66
2022-12-01T05:48:31.576Z,4.53
2022-12-01T05:49:30.812Z,4.55
2022-12-01T05:50:30.821Z,4.45
2022-12-01T05:51:30.815Z,4.45
2022-12-01T05:52:30.786Z,4.45
2022-12-01T05:53:32.518Z,4.53
2022-12-01T05:54:41.573Z,4.44
2022-12-01T05:55:30.774Z,4.56
2022-12-01T05:56:30.759Z,4.48
2022-12-01T05:57:30.764Z,4.58
2022-12-01T05:58:30.743Z,4.49
2022-12-01T05:59:30.735Z,4.52
2022-12-01T06:00:30.736Z,4.50
2022-12-01T06:01:30.716Z,4.49
2022-12-01T06:02:30.706Z,4.42
2022-12-01T06:03:30.698Z,4.41
2022-12-01T06:04:30.752Z,4.38
2022-12-01T06:05:30.681Z,4.41
2022-12-01T06:06:30.678Z,4.37
2022-12-01T06:07:30.724Z,4.45
2022-12-01T06:08:30.657Z,4.41
2022-12-01T06:09:31.507Z,4.34
2022-12-01T06:10:30.651Z,4.42
2022-12-01T06:11:30.652Z,4.32
2022-12-01T06:12:30.622Z,4.37
2022-12-01T06:13:30.615Z,4.38
2022-12-01T06:14:30.604Z,4.41
2022-12-01T06:15:31.583Z,4.44
2022-12-01T06:16:30.614Z,4.42
2022-12-01T06:17:31.956Z,4.37
2022-12-01T06:18:30.595Z,4.40
2022-12-01T06:19:30.561Z,4.38
2022-12-01T06:20:30.570Z,4.38
2022-12-01T06:21:31.633Z,4.30
2022-12-01T06:22:31.565Z,4.37
2022-12-01T06:23:31.091Z,4.23
2022-12-01T06:24:30.526Z,4.34
2022-12-01T06:25:31.074Z,4.26
2022-12-01T06:26:33.509Z,4.23
2022-12-01T06:27:30.502Z,4.37
2022-12-01T06:28:30.494Z,4.24
2022-12-01T06:29:32.076Z,4.23
2022-12-01T06:30:31.482Z,4.35
2022-12-01T06:31:30.534Z,4.20
2022-12-01T06:32:30.465Z,4.23
2022-12-01T06:33:30.467Z,4.40
2022-12-01T06:34:30.456Z,4.34
2022-12-01T06:35:30.439Z,4.37
2022-12-01T06:36:30.430Z,4.37
2022-12-01T06:37:30.428Z,4.35
2022-12-01T06:38:31.027Z,4.40
2022-12-01T06:39:32.507Z,4.35
2022-12-01T06:40:32.076Z,4.44
2022-12-01T06:42:39.248Z,4.44
2022-12-01T06:43:39.296Z,4.44
2022-12-01T06:44:39.309Z,4.52
2022-12-01T06:45:39.276Z,4.37
2022-12-01T06:46:40.663Z,4.42
2022-12-01T06:47:39.347Z,4.31
2022-12-01T06:48:43.102Z,4.37
2022-12-01T06:49:42.149Z,4.32
2022-12-01T06:50:39.194Z,4.28
2022-12-01T06:51:39.168Z,4.23
2022-12-01T06:52:40.144Z,4.16
2022-12-01T06:53:42.350Z,4.19
2022-12-01T06:54:39.146Z,4.12
2022-12-01T06:55:39.134Z,4.10
2022-12-01T06:56:40.258Z,4.14
2022-12-01T06:57:41.254Z,4.16
2022-12-01T06:58:40.318Z,4.08
2022-12-01T07:00:13.176Z,4.04
2022-12-01T07:00:40.206Z,4.13
2022-12-01T07:01:41.210Z,4.08
2022-12-01T07:02:40.288Z,4.08
2022-12-01T07:03:41.719Z,4.06
2022-12-01T07:04:40.717Z,4.08
2022-12-01T07:05:40.151Z,4.06
2022-12-01T07:06:40.213Z,4.12
2022-12-01T07:07:40.176Z,4.08
2022-12-01T07:08:40.132Z,4.05
2022-12-01T07:09:40.128Z,3.98
2022-12-01T07:10:41.722Z,3.98
2022-12-01T07:11:40.102Z,4.06
2022-12-01T07:12:40.092Z,3.96
2022-12-01T07:13:40.093Z,4.04
2022-12-01T07:14:40.080Z,4.08
2022-12-01T07:15:40.075Z,3.98
2022-12-01T07:16:40.148Z,3.98
2022-12-01T07:17:40.055Z,4.01
2022-12-01T07:18:40.041Z,3.99
2022-12-01T07:19:40.042Z,3.99
2022-12-01T07:20:40.028Z,4.02
2022-12-01T07:21:40.014Z,4.05
2022-12-01T07:22:40.015Z,4.06
2022-12-01T07:23:40.029Z,4.10
2022-12-01T07:24:39.999Z,4.08
2022-12-01T07:25:39.986Z,4.02
2022-12-01T07:26:39.984Z,3.99
2022-12-01T07:27:39.967Z,4.06
2022-12-01T07:28:39.977Z,4.04
2022-12-01T07:29:39.962Z,3.95
2022-12-01T07:30:39.994Z,4.01
2022-12-01T07:31:40.942Z,4.02
2022-12-01T07:32:39.939Z,4.04
2022-12-01T07:33:39.928Z,4.01
2022-12-01T07:34:39.934Z,4.05
2022-12-01T07:35:39.914Z,4.05
2022-12-01T07:36:39.901Z,3.95
2022-12-01T07:38:12.188Z,3.95
2022-12-01T07:38:39.884Z,3.87
2022-12-01T07:39:39.880Z,3.94
2022-12-01T07:40:39.871Z,3.91
2022-12-01T07:41:39.934Z,3.84
2022-12-01T07:43:47.354Z,3.95
2022-12-01T07:44:47.352Z,3.88
2022-12-01T07:45:47.375Z,3.84
2022-12-01T07:46:48.482Z,3.80
2022-12-01T07:47:48.425Z,3.81
2022-12-01T07:48:48.420Z,3.77
2022-12-01T07:49:50.131Z,3.83
2022-12-01T07:50:50.978Z,3.76
2022-12-01T07:51:48.392Z,3.87
2022-12-01T07:52:48.393Z,3.84
2022-12-01T07:53:48.985Z,3.88
2022-12-01T07:54:48.378Z,3.91
2022-12-01T07:55:49.009Z,3.94
2022-12-01T07:56:48.367Z,3.84
2022-12-01T07:57:48.991Z,3.86
2022-12-01T07:58:48.336Z,3.86
2022-12-01T07:59:48.608Z,3.76
2022-12-01T08:00:49.980Z,3.92
2022-12-01T08:01:48.401Z,3.78
2022-12-01T08:02:48.367Z,3.88
2022-12-01T08:03:48.303Z,4.06
2022-12-01T08:04:48.294Z,3.96
2022-12-01T08:05:48.277Z,3.92
2022-12-01T08:06:48.296Z,3.95
2022-12-01T08:07:48.409Z,3.99
2022-12-01T08:08:48.255Z,3.99
2022-12-01T08:09:48.459Z,3.88
2022-12-01T08:10:48.316Z,3.95
2022-12-01T08:11:48.245Z,3.91
2022-12-01T08:12:48.223Z,3.92
2022-12-01T08:13:48.218Z,3.99
2022-12-01T08:14:48.221Z,3.96
2022-12-01T08:15:48.239Z,3.95
2022-12-01T08:16:48.205Z,4.02
2022-12-01T08:17:48.193Z,4.04
2022-12-01T08:18:48.193Z,4.02
2022-12-01T08:19:48.524Z,4.04
2022-12-01T08:20:48.169Z,4.04
2022-12-01T08:21:48.176Z,4.02
2022-12-01T08:22:50.935Z,4.06
2022-12-01T08:23:48.142Z,4.02
2022-12-01T08:24:48.178Z,3.96
2022-12-01T08:25:48.131Z,3.95
2022-12-01T08:26:48.133Z,3.92
2022-12-01T08:27:48.266Z,3.94
2022-12-01T08:28:48.097Z,4.01
2022-12-01T08:29:49.135Z,3.94
2022-12-01T08:30:48.181Z,3.92
2022-12-01T08:31:49.070Z,4.08
2022-12-01T08:32:49.986Z,4.01
2022-12-01T08:33:48.062Z,4.04
2022-12-01T08:34:53.151Z,4.13
2022-12-01T08:35:50.049Z,4.17
2022-12-01T08:36:48.051Z,4.19
2022-12-01T08:37:48.030Z,4.26
2022-12-01T08:38:48.022Z,4.16
2022-12-01T08:39:50.302Z,4.20
2022-12-01T08:40:48.003Z,4.16
2022-12-01T08:41:48.159Z,4.17
2022-12-01T08:42:47.983Z,4.22
2022-12-01T08:44:03.233Z,4.20
2022-12-01T08:44:50.021Z,4.22
2022-12-01T08:45:47.963Z,4.22
2022-12-01T08:46:48.006Z,4.13
2022-12-01T08:47:47.955Z,4.24
2022-12-01T08:48:47.947Z,4.26
2022-12-01T08:49:48.386Z,4.20
2022-12-01T08:50:47.934Z,4.31
2022-12-01T08:51:48.430Z,4.32
2022-12-01T08:52:47.921Z,4.28
2022-12-01T08:53:48.418Z,4.35
2022-12-01T08:54:47.902Z,4.42
2022-12-01T08:55:47.881Z,4.35
2022-12-01T08:56:47.876Z,4.38
2022-12-01T08:57:47.870Z,4.44
2022-12-01T08:58:47.857Z,4.35
2022-12-01T08:59:48.126Z,4.34
2022-12-01T09:00:48.498Z,4.32
2022-12-01T09:01:47.916Z,4.38
2022-12-01T09:02:47.871Z,4.20
2022-12-01T09:03:47.820Z,4.28
2022-12-01T09:04:47.809Z,4.30
2022-12-01T09:05:47.812Z,4.44
2022-12-01T09:06:47.811Z,4.41
2022-12-01T09:07:47.887Z,4.37
2022-12-01T09:08:47.783Z,4.34
2022-12-01T09:09:48.081Z,4.28
2022-12-01T09:10:47.798Z,4.32
2022-12-01T09:11:47.753Z,4.32
2022-12-01T09:12:47.759Z,4.30
2022-12-01T09:13:54.327Z,4.12
2022-12-01T09:14:49.933Z,4.14
2022-12-01T09:15:48.432Z,4.19
2022-12-01T09:16:50.502Z,4.17
2022-12-01T09:18:54.562Z,4.13
2022-12-01T09:19:56.407Z,4.24
2022-12-01T09:20:54.552Z,4.22
2022-12-01T09:21:54.558Z,4.19
2022-12-01T09:22:54.531Z,4.14
2022-12-01T09:23:54.525Z,4.23
2022-12-01T09:24:55.513Z,4.20
2022-12-01T09:25:54.507Z,4.28
2022-12-01T09:26:54.502Z,4.23
2022-12-01T09:27:55.581Z,4.10
2022-12-01T09:28:55.572Z,4.24
2022-12-01T09:29:55.583Z,4.30
2022-12-01T09:30:55.768Z,4.22
2022-12-01T09:31:55.599Z,4.28
2022-12-01T09:32:55.546Z,4.32
2022-12-01T09:33:55.570Z,4.34
2022-12-01T09:34:55.538Z,4.35
2022-12-01T09:35:55.527Z,4.30
2022-12-01T09:36:55.522Z,4.30
2022-12-01T09:37:56.427Z,4.37
2022-12-01T09:38:55.492Z,4.42
2022-12-01T09:39:56.500Z,4.41
2022-12-01T09:40:56.488Z,4.31
2022-12-01T09:41:55.489Z,4.32
2022-12-01T09:42:55.469Z,4.34
2022-12-01T09:43:55.458Z,4.35
2022-12-01T09:45:04.036Z,4.31
2022-12-01T09:45:55.447Z,4.31
2022-12-01T09:46:56.482Z,4.34
2022-12-01T09:47:55.431Z,4.20
2022-12-01T09:48:55.425Z,4.24
2022-12-01T09:49:55.446Z,4.31
2022-12-01T09:50:55.406Z,4.31
2022-12-01T09:51:55.415Z,4.40
2022-12-01T09:52:56.001Z,4.41
2022-12-01T09:53:55.931Z,4.42
2022-12-01T09:54:55.387Z,4.44
2022-12-01T09:56:00.647Z,4.53
2022-12-01T09:56:57.923Z,4.62
2022-12-01T09:57:55.352Z,4.44
2022-12-01T09:58:55.341Z,4.37
2022-12-01T09:59:55.341Z,4.37
2022-12-01T10:00:55.392Z,4.37
2022-12-01T10:01:55.378Z,4.28
2022-12-01T10:02:55.314Z,4.23
2022-12-01T10:03:55.307Z,4.23
2022-12-01T10:04:55.308Z,4.30
2022-12-01T10:06:25.847Z,4.24
2022-12-01T10:06:57.281Z,4.40
2022-12-01T10:07:55.341Z,4.34
2022-12-01T10:08:55.281Z,4.45
2022-12-01T10:09:55.939Z,4.53
2022-12-01T10:10:55.258Z,4.52
2022-12-01T10:11:55.276Z,4.53
2022-12-01T10:12:55.271Z,4.44
2022-12-01T10:13:55.265Z,4.40
2022-12-01T10:14:55.219Z,4.41
2022-12-01T10:15:55.275Z,4.37
2022-12-01T10:16:55.205Z,4.56
2022-12-01T10:17:55.203Z,4.56
2022-12-01T10:18:55.232Z,4.60
2022-12-01T10:19:55.184Z,4.58
2022-12-01T10:20:59.965Z,4.52
2022-12-01T10:21:55.178Z,4.55
2022-12-01T10:22:55.164Z,4.66
2022-12-01T10:23:55.155Z,4.53
2022-12-01T10:24:55.141Z,4.45
2022-12-01T10:25:55.165Z,4.48
2022-12-01T10:26:57.015Z,4.56
2022-12-01T10:27:56.938Z,4.60
2022-12-01T10:28:56.149Z,4.53
2022-12-01T10:29:55.117Z,4.59
2022-12-01T10:30:57.927Z,4.48
2022-12-01T10:31:55.169Z,4.41
2022-12-01T10:32:55.129Z,4.53
2022-12-01T10:33:55.157Z,4.53
2022-12-01T10:34:55.927Z,4.56
2022-12-01T10:35:55.063Z,4.63
2022-12-01T10:36:57.021Z,4.53
2022-12-01T21:27:33.728Z,2.29
2022-12-01T21:28:33.709Z,2.29
2022-12-01T21:29:33.712Z,2.25
2022-12-01T21:30:33.753Z,2.31
2022-12-01T21:31:33.695Z,2.29
2022-12-01T21:32:33.703Z,2.26
2022-12-01T21:33:33.679Z,2.25
2022-12-01T21:34:33.661Z,2.25
2022-12-01T21:35:33.652Z,2.29
2022-12-01T21:36:33.676Z,2.26
2022-12-01T21:37:34.645Z,2.29
2022-12-01T21:38:33.645Z,2.24
2022-12-01T21:39:33.621Z,2.24
2022-12-01T21:40:34.716Z,2.25
2022-12-01T21:41:35.660Z,2.32
2022-12-01T21:42:34.712Z,2.31
2022-12-01T21:43:38.239Z,2.20
2022-12-01T21:44:35.686Z,2.25
2022-12-01T21:45:34.700Z,2.33
2022-12-01T21:46:34.718Z,2.18
2022-12-01T21:47:36.684Z,2.18
2022-12-01T21:48:34.644Z,2.17
2022-12-01T21:49:34.645Z,2.26
2022-12-01T21:50:34.635Z,2.15
2022-12-01T21:51:34.633Z,2.25
2022-12-01T21:52:34.625Z,2.26
2022-12-01T21:53:36.561Z,2.18
2022-12-01T21:54:34.606Z,2.13
2022-12-01T21:55:34.589Z,2.28
2022-12-01T21:56:34.594Z,2.24
2022-12-01T21:57:39.772Z,2.22
2022-12-01T21:58:36.576Z,2.18
2022-12-01T21:59:34.578Z,2.18
2022-12-01T22:00:34.569Z,2.15
2022-12-01T22:01:35.067Z,2.25
2022-12-01T22:02:34.584Z,2.20
2022-12-01T22:03:34.539Z,2.17
2022-12-01T22:04:34.521Z,2.22
2022-12-01T22:05:34.524Z,2.20
2022-12-01T22:06:35.164Z,2.31
2022-12-01T22:07:34.559Z,2.29
2022-12-01T22:08:34.525Z,2.31
2022-12-01T22:09:35.168Z,2.36
2022-12-01T22:10:34.474Z,2.32
2022-12-01T22:11:34.479Z,2.26
2022-12-01T22:12:34.486Z,2.32
2022-12-01T22:13:34.462Z,2.18
2022-12-01T22:14:36.156Z,2.18
2022-12-01T22:15:35.178Z,2.14
2022-12-01T22:16:35.155Z,2.14
2022-12-01T22:17:34.435Z,2.18
2022-12-01T22:18:34.421Z,2.14
2022-12-01T22:19:34.462Z,2.13
2022-12-01T22:20:34.405Z,2.11
2022-12-01T22:21:34.416Z,2.14
2022-12-01T22:22:34.393Z,2.14
2022-12-01T22:23:35.152Z,2.17
2022-12-01T22:24:34.383Z,2.20
2022-12-01T22:26:41.433Z,2.18
2022-12-01T22:27:41.437Z,2.17
2022-12-01T22:28:41.427Z,2.14
2022-12-01T22:29:42.514Z,2.13
2022-12-01T22:30:42.555Z,2.18
2022-12-01T22:31:42.495Z,2.18
2022-12-01T22:32:42.483Z,2.15
2022-12-01T22:33:42.476Z,2.13
2022-12-01T22:34:42.466Z,2.08
2022-12-01T22:35:42.539Z,2.13
2022-12-01T22:36:42.602Z,2.00
2022-12-01T22:37:42.445Z,2.07
2022-12-01T22:38:42.476Z,2.10
2022-12-01T22:39:42.478Z,2.17
2022-12-01T22:40:42.427Z,2.15
2022-12-01T22:41:43.417Z,2.20
2022-12-01T22:42:43.388Z,2.22
2022-12-01T22:43:42.402Z,2.18
2022-12-01T22:44:43.296Z,2.14
2022-12-01T22:45:42.378Z,2.24
2022-12-01T22:46:42.928Z,2.18
2022-12-01T22:47:43.366Z,2.17
2022-12-01T22:48:42.367Z,2.14
2022-12-01T22:49:43.300Z,2.14
2022-12-01T22:50:43.079Z,2.22
2022-12-01T22:51:42.367Z,2.11
2022-12-01T22:52:43.350Z,2.13
2022-12-01T22:53:42.323Z,2.11
2022-12-01T22:54:42.309Z,2.06
2022-12-01T22:55:43.307Z,2.14
2022-12-01T22:56:42.640Z,2.06
2022-12-01T22:57:42.861Z,2.08
2022-12-01T22:58:42.290Z,2.00
2022-12-01T22:59:42.281Z,2.10
2022-12-01T23:00:42.269Z,2.14
2022-12-01T23:01:42.311Z,2.07
2022-12-01T23:02:42.321Z,2.07
2022-12-01T23:03:42.248Z,2.07
2022-12-01T23:04:42.267Z,2.00
2022-12-01T23:05:42.228Z,1.99
2022-12-01T23:06:42.214Z,2.07
2022-12-01T23:07:42.254Z,2.00
2022-12-01T23:08:42.393Z,1.97
2022-12-01T23:09:42.196Z,2.04
2022-12-01T23:10:42.181Z,2.10
2022-12-01T23:11:42.186Z,2.02
2022-12-01T23:12:42.169Z,2.08
2022-12-01T23:13:42.158Z,2.14
2022-12-01T23:14:42.157Z,2.02
2022-12-01T23:15:42.170Z,2.14
2022-12-01T23:16:42.147Z,2.13
2022-12-01T23:17:42.131Z,2.15
2022-12-01T23:18:42.876Z,2.11
2022-12-01T23:19:42.110Z,2.10
2022-12-01T23:20:42.103Z,2.22
2022-12-01T23:21:42.089Z,2.11
2022-12-01T23:22:42.107Z,2.10
2022-12-01T23:23:42.085Z,2.17
2022-12-01T23:24:44.892Z,2.15
2022-12-01T23:25:42.069Z,2.13
2022-12-01T23:26:42.065Z,2.17
2022-12-01T23:27:42.063Z,2.17
2022-12-01T23:28:42.043Z,2.13
2022-12-01T23:29:42.048Z,2.15
2022-12-01T23:30:42.091Z,2.11
2022-12-01T23:31:42.850Z,2.18
2022-12-01T23:32:42.011Z,2.20
2022-12-01T23:33:42.033Z,2.28
2022-12-01T23:34:42.041Z,2.28
2022-12-01T23:35:42.043Z,2.14
2022-12-01T23:36:41.978Z,2.18
2022-12-01T23:37:41.986Z,2.17
2022-12-01T23:38:41.964Z,2.18
2022-12-01T23:39:41.966Z,2.11
2022-12-01T23:40:41.950Z,2.18
2022-12-01T23:41:41.961Z,2.11
2022-12-01T23:42:41.939Z,2.26
2022-12-01T23:43:41.945Z,2.10
2022-12-01T23:44:41.922Z,2.17
2022-12-01T23:45:41.935Z,2.15
2022-12-01T23:46:41.944Z,2.13
2022-12-01T23:47:41.888Z,2.10
2022-12-01T23:48:41.887Z,2.25
2022-12-01T23:49:41.891Z,2.15
2022-12-01T23:50:41.889Z,2.13
2022-12-01T23:51:42.819Z,2.14
2022-12-01T23:52:41.895Z,2.22
2022-12-01T23:53:43.833Z,2.28
2022-12-01T23:54:42.491Z,2.17
2022-12-01T23:55:41.828Z,2.22
2022-12-01T23:56:41.830Z,2.17
2022-12-01T23:57:41.825Z,2.10
2022-12-01T23:58:41.817Z,2.24
2022-12-01T23:59:41.803Z,2.24
